Latest Coastal Weather Observations for Rosslyn Bay Harbour

IDQ60701

Issued at 1:02 pm EST Tuesday 26 May 2020 (issued every 10 minutes, with the page automatically refreshed every 10 minutes)

About coastal observations | Map of coastal stations | Coastal observations for QLD | Marine services | Other Formats
Station Details ID: 033208 Name: ROSSLYN BAY NTC AWS Lat: -23.16 Lon: 150.79 Height: 0.0 m
Data from the previous 72 hours. | See also: Recent months for locations in Queensland
Date/Time
EST
Wind Sea
Height
m
Swell Vis
km
Cloud Weather Temp
°C
Press
hPa
Rain since
9am
mm
Dir  Spd
kts
Gust
kts
Height
m
Period
s
Dir
26/01:00pm WSW 2 5 - - - - - - - 20.5 1018.3 -
26/12:30pm S 3 8 - - - - - - - 20.4 1018.9 -
26/12:00pm S 5 8 - - - - - - - 19.9 1019.2 -
26/11:30am S 6 10 - - - - - - - 19.2 1019.5 -
26/11:00am S 4 7 - - - - - - - 19.2 1019.9 -
26/10:30am SSE 3 5 - - - - - - - 19.1 1020.0 -
26/10:00am SSE 2 4 - - - - - - - 18.8 1020.0 -
26/09:30am NNW 4 5 - - - - - - - 17.1 1020.3 -
26/09:00am NNW 5 6 - - - - - - - 16.1 1020.0 -
26/08:30am WNW 4 5 - - - - - - - 15.9 1019.9 -
26/08:00am WNW 1 3 - - - - - - - 15.1 1019.7 -
26/07:30am WNW 2 4 - - - - - - - 13.8 1019.6 -
26/07:00am W 4 5 - - - - - - - 13.4 1019.4 -
26/06:30am SSW 5 7 - - - - - - - 15.4 1018.9 -
26/06:00am WSW 4 6 - - - - - - - 13.4 1018.7 -
26/05:30am WSW 2 3 - - - - - - - 13.8 1018.2 -
26/05:00am WSW 2 3 - - - - - - - 13.8 1017.8 -
26/04:30am WSW 3 4 - - - - - - - 14.2 1017.7 -
26/04:00am W 4 6 - - - - - - - 14.2 1017.8 -
26/03:30am W 4 6 - - - - - - - 15.2 1017.7 -
26/03:00am WSW 4 6 - - - - - - - 15.6 1017.3 -
26/02:30am SSW 4 7 - - - - - - - 15.1 1017.7 -
26/02:00am SW 5 7 - - - - - - - 14.9 1018.0 -
26/01:30am W 6 10 - - - - - - - 15.4 1018.3 -
26/01:00am SW 5 10 - - - - - - - 15.6 1018.1 -
26/12:30am SW 4 6 - - - - - - - 15.6 1018.1 -
26/12:00am SW 4 7 - - - - - - - 16.0 1018.2 -
 
Date/Time
EST
Wind Sea
Height
m
Swell Vis
km
Cloud Weather Temp
°C
Press
hPa
Rain since
9am
mm
Dir  Spd
kts
Gust
kts
Height
m
Period
s
Dir
25/11:30pm SW 4 7 - - - - - - - 16.0 1018.3 -
25/11:00pm SW 4 6 - - - - - - - 15.8 1018.4 -
25/10:30pm WNW 3 5 - - - - - - - 15.8 1018.4 -
25/10:00pm W 3 5 - - - - - - - 16.0 1018.4 -
25/09:30pm W 2 3 - - - - - - - 16.2 1018.3 -
25/09:00pm NNW 5 8 - - - - - - - 17.4 1018.1 -
25/08:30pm NNW 7 10 - - - - - - - 17.9 1018.1 -
25/08:00pm N 7 10 - - - - - - - 17.9 1018.0 -
25/07:30pm N 7 10 - - - - - - - 18.0 1017.6 -
25/07:00pm N 7 11 - - - - - - - 18.2 1017.2 -
25/06:30pm NNW 6 8 - - - - - - - 18.2 1016.9 -
25/06:00pm N 7 10 - - - - - - - 18.8 1016.4 -
25/05:30pm N 7 10 - - - - - - - 18.7 1016.1 -
25/05:00pm NNE 6 9 - - - - - - - 19.0 1015.8 -
25/04:30pm NE 6 9 - - - - - - - 19.1 1015.4 -
25/04:00pm NE 7 10 - - - - - - - 18.9 1015.4 -
25/03:30pm ENE 9 11 - - - - - - - 18.8 1015.3 -
25/03:00pm ENE 8 12 - - - - - - - 19.0 1015.3 -
25/02:30pm ENE 7 11 - - - - - - - 19.3 1015.2 -
25/02:00pm ENE 9 11 - - - - - - - 18.5 1015.7 -
25/01:30pm NE 9 10 - - - - - - - 18.1 1016.0 -
25/01:00pm NE 7 9 - - - - - - - 17.8 1016.0 -
25/12:30pm NE 4 6 - - - - - - - 18.0 1016.4 -
25/12:00pm NNE 3 6 - - - - - - - 18.1 1016.7 -
25/11:30am NNE 4 7 - - - - - - - 17.7 1016.9 -
25/11:00am NE 5 8 - - - - - - - 17.4 1017.1 -
25/10:30am S 3 6 - - - - - - - 17.6 1017.4 -
25/10:00am SW 4 8 - - - - - - - 17.1 1017.6 -
25/09:30am S 4 8 - - - - - - - 16.6 1017.6 -
25/09:00am WNW 3 5 - - - - - - - 15.1 1017.4 -
25/08:30am WNW 5 7 - - - - - - - 14.0 1017.3 -
25/08:00am SW 4 6 - - - - - - - 14.1 1017.1 -
25/07:30am W 5 9 - - - - - - - 12.1 1017.2 -
25/07:00am SW 5 7 - - - - - - - 12.4 1016.7 -
25/06:30am WSW 5 7 - - - - - - - 10.1 1016.9 -
25/06:00am WSW 5 8 - - - - - - - 11.1 1016.6 -
25/05:30am W 4 6 - - - - - - - 11.1 1016.4 -
25/05:00am W 4 6 - - - - - - - 11.8 1016.0 -
25/04:30am SSW 5 7 - - - - - - - 14.2 1015.6 -
25/04:00am SSW 6 9 - - - - - - - 14.1 1015.4 -
25/03:30am SW 6 8 - - - - - - - 14.4 1015.6 -
25/03:00am SW 5 7 - - - - - - - 13.9 1015.6 -
25/02:30am SSW 5 7 - - - - - - - 13.5 1015.9 -
25/02:00am WSW 6 9 - - - - - - - 13.8 1015.9 -
25/01:30am WSW 4 7 - - - - - - - 13.9 1016.0 -
25/01:00am SW 3 6 - - - - - - - 14.1 1016.1 -
25/12:30am WSW 3 5 - - - - - - - 14.4 1016.1 -
25/12:00am WSW 4 5 - - - - - - - 14.4 1016.4 -
 
Date/Time
EST
Wind Sea
Height
m
Swell Vis
km
Cloud Weather Temp
°C
Press
hPa
Rain since
9am
mm
Dir  Spd
kts
Gust
kts
Height
m
Period
s
Dir
24/11:30pm SW 3 5 - - - - - - - 14.5 1016.6 -
24/11:00pm WSW 3 5 - - - - - - - 14.6 1016.8 -
24/10:30pm SW 3 4 - - - - - - - 14.2 1016.8 -
24/10:00pm W 3 5 - - - - - - - 14.5 1017.0 -
24/09:30pm S 2 4 - - - - - - - 15.2 1016.6 -
24/09:00pm SW 3 4 - - - - - - - 14.8 1016.2 -
24/08:30pm SSW 1 3 - - - - - - - 15.2 1016.0 -
24/08:00pm W 4 6 - - - - - - - 15.5 1015.7 -
24/07:30pm WSW 2 3 - - - - - - - 15.9 1015.3 -
24/07:00pm WSW 3 4 - - - - - - - 16.2 1014.6 -
24/06:30pm SW 3 7 - - - - - - - 16.9 1014.1 -
24/06:00pm SSW 5 8 - - - - - - - 17.4 1013.5 -
24/05:30pm SSW 6 9 - - - - - - - 17.5 1013.1 -
24/05:00pm SW 7 11 - - - - - - - 18.1 1012.9 -
24/04:30pm SW 8 14 - - - - - - - 18.4 1012.8 -
24/04:00pm WSW 9 14 - - - - - - - 18.5 1012.6 -
24/03:30pm SW 10 15 - - - - - - - 18.2 1012.3 -
24/03:00pm SW 8 16 - - - - - - - 18.3 1012.1 -
24/02:30pm SW 9 14 - - - - - - - 18.1 1012.2 -
24/02:00pm WSW 7 12 - - - - - - - 17.9 1012.8 -
24/01:30pm WSW 6 10 - - - - - - - 17.6 1013.2 -
24/01:00pm W 2 5 - - - - - - - 17.2 1013.9 -
24/12:30pm SW 6 9 - - - - - - - 16.6 1014.5 -
24/12:00pm SSW 4 9 - - - - - - - 16.8 1015.0 -
24/11:30am SW 6 11 - - - - - - - 16.1 1015.5 -
24/11:00am SSW 8 14 - - - - - - - 15.8 1015.9 -
24/10:30am SSW 10 15 - - - - - - - 15.2 1016.1 -
24/10:00am SSW 11 17 - - - - - - - 14.9 1016.2 -
24/09:30am SSW 10 17 - - - - - - - 14.3 1016.3 -
24/09:00am SSW 7 14 - - - - - - - 13.8 1016.1 -
24/08:30am W 4 6 - - - - - - - 12.1 1016.0 -
24/08:00am W 4 6 - - - - - - - 11.4 1015.9 -
24/07:30am W 3 6 - - - - - - - 10.8 1015.5 -
24/07:00am SW 4 7 - - - - - - - 10.4 1015.2 -
24/06:30am SW 5 9 - - - - - - - 10.4 1015.0 -
24/06:00am WSW 5 7 - - - - - - - 10.5 1014.9 -
24/05:30am SW 4 6 - - - - - - - 10.7 1014.7 -
24/05:00am WSW 3 5 - - - - - - - 11.4 1014.1 -
24/04:30am SSW 4 6 - - - - - - - 11.9 1014.0 -
24/04:00am SSW 3 5 - - - - - - - 12.4 1014.0 -
24/03:30am SW 6 10 - - - - - - - 12.5 1013.7 -
24/03:00am SW 7 10 - - - - - - - 12.2 1013.3 -
24/02:30am SW 6 10 - - - - - - - 11.9 1013.7 -
24/02:00am SW 8 12 - - - - - - - 11.4 1013.5 -
24/01:30am SW 6 11 - - - - - - - 11.7 1014.4 -
24/01:00am WSW 7 11 - - - - - - - 11.6 1014.9 -
24/12:30am W 6 9 - - - - - - - 11.6 1015.0 -
24/12:00am W 7 10 - - - - - - - 11.9 1015.7 -
 
Date/Time
EST
Wind Sea
Height
m
Swell Vis
km
Cloud Weather Temp
°C
Press
hPa
Rain since
9am
mm
Dir  Spd
kts
Gust
kts
Height
m
Period
s
Dir
23/11:30pm W 5 8 - - - - - - - 11.9 1014.6 -
23/11:00pm W 4 6 - - - - - - - 12.1 1015.1 -
23/10:30pm W 5 8 - - - - - - - 11.9 1014.2 -
23/10:00pm W 4 6 - - - - - - - 11.9 1015.0 -
23/09:40pm WSW 5 9 - - - - - - - 12.1 1014.5 -
23/09:33pm SW 5 8 - - - - - - - 12.4 1016.8 -
23/09:30pm SW 5 10 - - - - - - - 11.8 1014.6 -
23/09:00pm WSW 5 9 - - - - - - - 12.0 1014.5 -
23/08:46pm W 5 9 - - - - - - - 11.9 1014.6 -
23/08:30pm W 6 11 - - - - - - - 12.4 1016.6 -
23/08:00pm WNW 6 9 - - - - - - - 11.9 1015.4 -
23/07:30pm WNW 4 8 - - - - - - - 12.0 1014.9 -
23/07:21pm W 5 9 - - - - - - - 12.2 1015.9 -
23/07:00pm W 5 8 - - - - - - - 11.9 1013.9 -
23/06:30pm WNW 6 10 - - - - - - - 12.4 1015.1 -
23/06:00pm WNW 3 7 - - - - - - - 12.0 1013.4 -
23/05:37pm W 4 9 - - - - - - - 12.2 1013.1 -
23/05:30pm W 7 15 - - - - - - - 12.2 1015.2 -
23/05:13pm WSW 6 11 - - - - - - - 12.2 1014.7 -
23/05:00pm SW 5 8 - - - - - - - 11.7 1012.6 -
23/04:30pm WSW 2 4 - - - - - - - 11.9 1012.4 -
23/04:27pm WSW 3 7 - - - - - - - 12.0 1012.4 -
23/04:00pm W 5 8 - - - - - - - 12.2 1014.4 -
23/03:30pm WSW 5 8 - - - - - - - 11.8 1013.6 -
23/03:00pm W 3 5 - - - - - - - 11.9 1013.4 -
23/02:30pm WSW 5 8 - - - - - - - 11.8 1013.1 -
23/02:00pm W 5 7 - - - - - - - 12.0 1014.3 -
23/01:30pm WSW 5 8 - - - - - - - 11.7 1014.4 -

Other formats

Comma delimited format used in spreadsheet applications
http://www.bom.gov.au/fwo/IDQ60701/IDQ60701.95298.axf

JavaScript Object Notation format (JSON) in row-major order
http://www.bom.gov.au/fwo/IDQ60701/IDQ60701.95298.json

Data quality

Most of these data are generated automatically and are frequently updated. Quality checks on data are not normally performed. It is possible for incorrect values to appear. Refer to information at About Latest Weather Observations and please check the disclaimer before using these data.